createdAt,value
2022-08-23T00:02:35.126Z,99.90
2022-08-23T00:07:39.870Z,99.90
2022-08-23T00:12:43.701Z,99.90
2022-08-23T00:17:46.635Z,99.90
2022-08-23T00:22:48.897Z,99.90
2022-08-23T00:27:52.084Z,99.90
2022-08-23T00:32:57.907Z,99.90
2022-08-23T00:38:32.563Z,99.90
2022-08-23T00:43:52.487Z,99.90
2022-08-23T00:48:56.594Z,99.90
2022-08-23T00:54:01.651Z,99.90
2022-08-23T00:59:03.949Z,99.90
2022-08-23T01:04:06.238Z,99.90
2022-08-23T01:09:13.625Z,99.90
2022-08-23T01:14:18.027Z,99.90
2022-08-23T01:19:30.441Z,99.90
2022-08-23T01:25:06.247Z,99.90
2022-08-23T01:29:57.764Z,99.90
2022-08-23T01:35:00.530Z,99.90
2022-08-23T01:40:03.527Z,99.90
2022-08-23T01:45:06.556Z,99.90
2022-08-23T01:50:11.371Z,99.90
2022-08-23T01:55:13.663Z,99.90
2022-08-23T02:00:16.744Z,99.90
2022-08-23T02:05:20.349Z,99.90
2022-08-23T02:10:22.989Z,99.90
2022-08-23T02:15:26.613Z,99.90
2022-08-23T02:20:28.888Z,99.90
2022-08-23T02:25:31.361Z,99.90
2022-08-23T02:30:34.210Z,99.90
2022-08-23T02:35:39.029Z,99.90
2022-08-23T02:40:42.413Z,99.90
2022-08-23T02:45:45.342Z,99.90
2022-08-23T02:50:49.851Z,99.90
2022-08-23T02:55:53.457Z,99.90
2022-08-23T03:00:55.985Z,99.90
2022-08-23T03:06:25.048Z,99.90
2022-08-23T03:11:23.281Z,99.90
2022-08-23T03:16:27.893Z,99.90
2022-08-23T03:21:31.156Z,99.90
2022-08-23T03:26:35.777Z,99.90
2022-08-23T03:31:38.342Z,99.90
2022-08-23T03:36:45.360Z,99.90
2022-08-23T03:41:48.346Z,99.90
2022-08-23T03:46:50.910Z,99.90
2022-08-23T03:51:53.432Z,99.90
2022-08-23T03:57:02.549Z,99.90
2022-08-23T04:02:08.274Z,99.90
2022-08-23T04:07:11.961Z,99.90
2022-08-23T04:12:17.895Z,99.90
2022-08-23T04:17:21.510Z,99.90
2022-08-23T04:22:24.802Z,99.90
2022-08-23T04:27:27.316Z,99.90
2022-08-23T04:32:29.957Z,99.90
2022-08-23T04:37:36.904Z,99.90
2022-08-23T04:42:40.696Z,99.90
2022-08-23T04:47:44.712Z,99.90
2022-08-23T04:52:47.605Z,99.90
2022-08-23T04:57:50.258Z,99.90
2022-08-23T05:02:57.313Z,99.90
2022-08-23T05:08:00.457Z,99.90
2022-08-23T05:13:03.117Z,99.90
2022-08-23T05:18:05.822Z,99.90
2022-08-23T05:23:10.066Z,99.90
2022-08-23T05:28:28.599Z,99.90
2022-08-23T05:33:32.958Z,99.90
2022-08-23T05:38:35.698Z,99.90
2022-08-23T05:43:38.955Z,99.90
2022-08-23T05:48:43.702Z,99.90
2022-08-23T05:53:48.192Z,99.90
2022-08-23T05:58:55.507Z,99.90
2022-08-23T06:04:07.843Z,99.90
2022-08-23T06:09:15.546Z,99.90
2022-08-23T06:14:18.721Z,99.90
2022-08-23T06:19:21.103Z,99.90
2022-08-23T06:24:42.810Z,99.90
2022-08-23T06:29:51.678Z,99.90
2022-08-23T06:35:32.994Z,99.90
2022-08-23T06:40:38.439Z,99.90
2022-08-23T06:46:09.034Z,99.90
2022-08-23T06:51:19.870Z,99.90
2022-08-23T06:56:29.963Z,99.90
2022-08-23T07:01:53.131Z,99.90
2022-08-23T07:07:15.276Z,99.90
2022-08-23T07:12:19.700Z,99.90
2022-08-23T07:17:22.474Z,99.90
2022-08-23T07:22:25.434Z,99.90
2022-08-23T07:27:28.142Z,99.90
2022-08-23T07:32:40.401Z,99.90
2022-08-23T07:37:57.414Z,99.90
2022-08-23T07:43:05.281Z,99.90
2022-08-23T07:48:11.513Z,99.90
2022-08-23T07:53:38.337Z,99.90
2022-08-23T07:58:42.435Z,99.90
2022-08-23T08:04:14.057Z,99.90
2022-08-23T08:09:20.209Z,99.90
2022-08-23T08:14:23.118Z,99.90
2022-08-23T08:19:30.372Z,99.90
2022-08-23T08:24:51.310Z,99.90
2022-08-23T08:29:55.022Z,99.90
2022-08-23T08:34:57.376Z,99.90
2022-08-23T08:40:01.138Z,99.90
2022-08-23T08:45:25.508Z,99.90
2022-08-23T08:50:38.281Z,99.90
2022-08-23T08:55:45.580Z,99.90
2022-08-23T09:00:50.667Z,99.90
2022-08-23T09:06:01.865Z,99.90
2022-08-23T09:11:14.397Z,99.90
2022-08-23T09:16:28.818Z,99.90
2022-08-23T09:21:53.926Z,99.90
2022-08-23T09:26:56.575Z,99.90
2022-08-23T09:32:27.090Z,99.90
2022-08-23T09:37:29.989Z,99.90
2022-08-23T09:42:38.131Z,99.90
2022-08-23T09:47:44.983Z,99.90
2022-08-23T09:52:58.243Z,99.90
2022-08-23T09:58:05.366Z,99.90
2022-08-23T10:03:22.365Z,99.90
2022-08-23T10:08:42.389Z,99.90
2022-08-23T10:13:45.813Z,99.90
2022-08-23T10:18:53.406Z,99.90
2022-08-23T10:24:15.917Z,99.90
2022-08-23T10:29:40.874Z,98.90
2022-08-23T10:35:14.925Z,99.90
2022-08-23T10:40:23.662Z,99.90
2022-08-23T10:45:31.636Z,99.90
2022-08-23T10:50:53.411Z,99.80
2022-08-23T10:56:03.088Z,99.50
2022-08-23T11:01:12.769Z,98.90
2022-08-23T11:06:37.369Z,99.90
2022-08-23T11:12:11.860Z,98.80
2022-08-23T11:17:45.303Z,98.40
2022-08-23T11:22:56.848Z,97.60
2022-08-23T11:28:30.602Z,96.30
2022-08-23T11:33:58.772Z,97.70
2022-08-23T11:39:06.973Z,96.30
2022-08-23T11:44:13.296Z,96.30
2022-08-23T11:49:42.881Z,96.00
2022-08-23T11:55:22.045Z,95.70
2022-08-23T12:00:45.165Z,94.20
2022-08-23T12:05:54.060Z,93.70
2022-08-23T12:10:56.372Z,94.00
2022-08-23T12:16:23.949Z,94.50
2022-08-23T12:21:41.751Z,92.70
2022-08-23T12:27:07.139Z,93.70
2022-08-23T12:32:19.327Z,92.80
2022-08-23T12:37:36.387Z,92.50
2022-08-23T12:42:40.202Z,93.60
2022-08-23T12:47:46.687Z,91.20
2022-08-23T12:53:01.462Z,91.80
2022-08-23T12:58:05.550Z,91.80
2022-08-23T13:03:16.067Z,91.00
2022-08-23T13:08:27.392Z,92.50
2022-08-23T13:13:43.007Z,90.80
2022-08-23T13:18:45.931Z,91.20
2022-08-23T13:23:48.530Z,89.20
2022-08-23T13:29:17.735Z,89.90
2022-08-23T13:34:40.641Z,91.60
2022-08-23T13:39:58.415Z,89.50
2022-08-23T13:45:14.346Z,90.40
2022-08-23T13:50:22.966Z,91.10
2022-08-23T13:55:27.668Z,92.10
2022-08-23T14:00:29.954Z,90.10
2022-08-23T14:05:33.111Z,89.20
2022-08-23T14:10:35.771Z,90.60
2022-08-23T14:21:02.555Z,91.40
2022-08-23T14:26:04.869Z,89.80
2022-08-23T14:31:07.209Z,90.90
2022-08-23T14:36:09.766Z,89.80
2022-08-23T14:41:16.720Z,88.20
2022-08-23T14:46:23.003Z,87.40
2022-08-23T14:51:33.402Z,88.60
2022-08-23T14:56:35.622Z,87.80
2022-08-23T15:01:38.931Z,87.90
2022-08-23T15:07:00.407Z,87.10
2022-08-23T15:17:31.217Z,87.80
2022-08-23T15:22:34.017Z,88.30
2022-08-23T15:27:47.510Z,87.10
2022-08-23T15:32:52.507Z,89.60
2022-08-23T15:37:59.357Z,89.70
2022-08-23T15:43:03.315Z,86.50
2022-08-23T15:48:21.354Z,85.80
2022-08-23T15:53:23.692Z,87.00
2022-08-23T15:58:27.695Z,88.50
2022-08-23T16:03:30.255Z,88.80
2022-08-23T16:08:36.272Z,88.50
2022-08-23T16:13:44.416Z,90.00
2022-08-23T16:18:47.409Z,87.60
2022-08-23T16:23:49.659Z,87.70
2022-08-23T16:28:54.709Z,86.80
2022-08-23T16:33:57.812Z,87.70
2022-08-23T16:39:00.058Z,86.90
2022-08-23T16:44:02.488Z,87.00
2022-08-23T16:49:05.121Z,86.60
2022-08-23T16:54:10.929Z,88.20
2022-08-23T16:59:13.565Z,86.90
2022-08-23T17:04:17.192Z,87.50
2022-08-23T17:09:23.968Z,87.80
2022-08-23T17:14:26.831Z,88.80
2022-08-23T17:19:29.601Z,88.50
2022-08-23T17:24:32.052Z,88.50
2022-08-23T17:29:37.494Z,88.60
2022-08-23T17:34:40.258Z,89.40
2022-08-23T17:39:42.821Z,89.90
2022-08-23T17:44:45.352Z,90.00
2022-08-23T17:49:49.277Z,90.50
2022-08-23T17:54:52.415Z,90.90
2022-08-23T17:59:54.872Z,91.10
2022-08-23T18:04:57.176Z,91.50
2022-08-23T18:09:59.658Z,91.60
2022-08-23T18:15:04.946Z,91.70
2022-08-23T18:20:10.257Z,92.10
2022-08-23T18:25:14.020Z,92.40
2022-08-23T18:30:17.354Z,92.20
2022-08-23T18:35:20.002Z,92.80
2022-08-23T18:40:22.708Z,92.70
2022-08-23T18:45:25.282Z,92.90
2022-08-23T18:50:27.653Z,93.30
2022-08-23T18:55:29.906Z,93.50
2022-08-23T19:00:32.349Z,93.80
2022-08-23T19:05:41.946Z,94.20
2022-08-23T19:10:45.518Z,94.50
2022-08-23T19:15:48.602Z,94.60
2022-08-23T19:20:51.068Z,95.00
2022-08-23T19:25:53.333Z,95.20
2022-08-23T19:30:55.571Z,95.50
2022-08-23T19:35:59.241Z,95.70
2022-08-23T19:41:02.497Z,95.80
2022-08-23T19:46:15.755Z,95.70
2022-08-23T19:51:20.201Z,96.10
2022-08-23T19:56:22.423Z,96.10
2022-08-23T20:01:25.126Z,96.40
2022-08-23T20:06:28.892Z,96.70
2022-08-23T20:11:32.362Z,97.20
2022-08-23T20:16:36.036Z,97.30
2022-08-23T20:21:40.059Z,97.50
2022-08-23T20:26:48.070Z,97.60
2022-08-23T20:31:57.058Z,97.90
2022-08-23T20:36:59.701Z,98.60
2022-08-23T20:42:03.428Z,99.00
2022-08-23T20:47:11.034Z,99.40
2022-08-23T20:52:13.552Z,99.10
2022-08-23T20:57:15.962Z,99.60
2022-08-23T21:02:18.350Z,99.70
2022-08-23T21:07:21.385Z,99.90
2022-08-23T21:12:25.449Z,99.90
2022-08-23T21:17:27.778Z,99.90
2022-08-23T21:22:32.070Z,99.90
2022-08-23T21:27:35.373Z,99.90
2022-08-23T21:32:37.790Z,99.90
2022-08-23T21:37:40.527Z,99.90
2022-08-23T21:42:42.826Z,99.90
2022-08-23T21:47:45.867Z,99.90
2022-08-23T21:53:04.026Z,99.90
2022-08-23T21:58:07.363Z,99.90
2022-08-23T22:03:09.718Z,99.90
2022-08-23T22:08:14.618Z,99.90
2022-08-23T22:13:19.729Z,99.90
2022-08-23T22:18:22.074Z,99.90
2022-08-23T22:23:26.890Z,99.90
2022-08-23T22:28:32.318Z,99.90
2022-08-23T22:33:35.132Z,99.90
2022-08-23T22:38:38.984Z,99.90
2022-08-23T22:43:41.327Z,99.90
2022-08-23T22:48:43.549Z,99.90
2022-08-23T22:53:48.382Z,99.90
2022-08-23T22:58:52.803Z,99.90
2022-08-23T23:03:56.801Z,99.90
2022-08-23T23:08:59.509Z,99.90
2022-08-23T23:14:02.441Z,99.90
2022-08-23T23:19:24.406Z,99.90
2022-08-23T23:24:30.082Z,99.90
2022-08-23T23:29:32.595Z,99.90
2022-08-23T23:34:34.971Z,99.90
2022-08-23T23:39:37.195Z,99.90
2022-08-23T23:44:39.643Z,99.90
2022-08-23T23:49:41.880Z,99.90
2022-08-23T23:54:44.265Z,99.90
2022-08-23T23:59:46.627Z,99.90
